Time;durP1;ratioP1;P1;durP2;ratioP2;P2;SDS_P1;SDS_P2;PMS_P1;PMS_P2;Temp;Humidity;BMP_temperature;BMP_pressure;BME280_temperature;BME280_humidity;BME280_pressure;Samples;Min_cycle;Max_cycle;Signal;HPM_P1;HPM_P2
2022/03/11 00:00:27;;;;;;;9.17;5.40;;;1.00;88.90;;;;;;5013646;28;20494;-92
2022/03/11 00:02:54;;;;;;;7.17;4.77;;;;;;;;;;5013822;28;20547;-90
2022/03/11 00:05:21;;;;;;;11.23;5.40;;;;;;;;;;5016658;28;20822;-90
2022/03/11 00:07:48;;;;;;;12.63;6.00;;;;;;;;;;5017782;28;20443;-89
2022/03/11 00:10:15;;;;;;;8.53;5.17;;;;;;;;;;5015677;28;20443;-93
2022/03/11 00:12:43;;;;;;;11.37;6.03;;;;;;;;;;5016726;28;20455;-94
2022/03/11 00:15:10;;;;;;;10.60;6.30;;;;;;;;;;5016637;28;20449;-88
2022/03/11 00:17:38;;;;;;;14.67;6.10;;;;;;;;;;5016820;28;20440;-90
2022/03/11 00:20:06;;;;;;;11.43;6.33;;;;;;;;;;5016815;28;20445;-93
2022/03/11 00:22:33;;;;;;;9.63;5.27;;;;;;;;;;5017317;28;20437;-92
2022/03/11 00:25:01;;;;;;;14.73;6.63;;;;;;;;;;5015539;28;20823;-94
2022/03/11 00:27:28;;;;;;;12.23;6.40;;;;;;;;;;5009920;28;20455;-93
2022/03/11 00:29:55;;;;;;;10.00;5.40;;;;;;;;;;5017059;28;20938;-94
2022/03/11 00:32:22;;;;;;;11.80;5.67;;;;;;;;;;5016663;28;20449;-92
2022/03/11 00:34:51;;;;;;;9.97;4.90;;;;;;;;;;5016659;28;20471;-93
2022/03/11 00:37:18;;;;;;;7.93;4.70;;;;;;;;;;5016803;28;20828;-92
2022/03/11 00:39:47;;;;;;;9.20;4.70;;;0.60;92.80;;;;;;5003432;28;20497;-91
2022/03/11 00:42:16;;;;;;;7.83;4.50;;;;;;;;;;4992002;28;20457;-91
2022/03/11 00:44:44;;;;;;;11.93;5.50;;;;;;;;;;4996391;28;20504;-89
2022/03/11 00:47:13;;;;;;;9.10;5.00;;;;;;;;;;4996203;28;20456;-92
2022/03/11 00:49:40;;;;;;;8.43;4.83;;;;;;;;;;4995642;28;20433;-88
2022/03/11 00:52:12;;;;;;;8.97;4.60;;;;;;;;;;4995993;28;20456;-93
2022/03/11 00:54:39;;;;;;;6.10;4.40;;;;;;;;;;4996007;28;20445;-89
2022/03/11 00:57:06;;;;;;;6.50;4.63;;;;;;;;;;4995121;28;20453;-90
2022/03/11 00:59:36;;;;;;;14.33;5.30;;;;;;;;;;4995563;28;20504;-88
2022/03/11 01:02:04;;;;;;;10.67;5.03;;;;;;;;;;4993136;28;20449;-89
2022/03/11 01:04:31;;;;;;;8.20;4.50;;;;;;;;;;4995526;28;20921;-95
2022/03/11 01:07:04;;;;;;;5.27;3.77;;;0.50;94.60;;;;;;4996324;28;20464;-96
2022/03/11 01:09:34;;;;;;;7.10;4.30;;;0.60;97.70;;;;;;4991906;28;20437;-92
2022/03/11 01:12:01;;;;;;;11.07;5.87;;;;;;;;;;4994311;28;20446;-94
2022/03/11 01:14:28;;;;;;;7.87;4.40;;;;;;;;;;4994848;28;20457;-90
2022/03/11 01:16:55;;;;;;;7.80;5.50;;;;;;;;;;4995532;28;20450;-93
2022/03/11 01:19:23;;;;;;;10.40;6.10;;;;;;;;;;4996065;28;20569;-88
2022/03/11 01:21:52;;;;;;;7.17;5.20;;;;;;;;;;4993721;28;20528;-88
2022/03/11 01:24:21;;;;;;;9.67;5.40;;;;;;;;;;4995457;28;20437;-86
2022/03/11 01:26:51;;;;;;;9.63;6.30;;;;;;;;;;4994195;28;20458;-90
2022/03/11 01:29:18;;;;;;;9.63;5.30;;;;;;;;;;4995199;28;20445;-89
2022/03/11 01:31:45;;;;;;;8.67;5.73;;;;;;;;;;4996123;28;20796;-94
2022/03/11 01:34:18;;;;;;;5.87;4.47;;;;;;;;;;4995808;28;20442;-90
2022/03/11 01:36:45;;;;;;;11.63;6.30;;;;;;;;;;4996093;28;20463;-93
2022/03/11 01:39:13;;;;;;;9.87;6.40;;;;;;;;;;4995410;28;20504;-88
2022/03/11 01:41:40;;;;;;;10.90;6.80;;;;;;;;;;4994526;28;20460;-90
2022/03/11 01:44:10;;;;;;;9.30;6.17;;;0.30;99.90;;;;;;4995937;28;20476;-94
2022/03/11 01:46:38;;;;;;;8.23;5.83;;;;;;;;;;4995846;28;20453;-92
2022/03/11 01:49:07;;;;;;;10.97;6.20;;;0.30;99.90;;;;;;4995790;28;20457;-91
2022/03/11 01:51:34;;;;;;;13.53;5.60;;;;;;;;;;4995790;28;20453;-95
2022/03/11 01:54:02;;;;;;;9.57;5.40;;;;;;;;;;4995556;28;20461;-93
2022/03/11 01:56:29;;;;;;;9.67;6.87;;;;;;;;;;4994701;28;20457;-90
2022/03/11 01:58:57;;;;;;;12.23;6.00;;;;;;;;;;4995674;28;20492;-90
2022/03/11 02:01:36;;;;;;;7.47;4.97;;;;;;;;;;4995252;28;20457;-93
2022/03/11 02:04:03;;;;;;;9.40;6.27;;;;;;;;;;4994370;28;20481;-88
2022/03/11 02:06:32;;;;;;;12.87;6.70;;;;;;;;;;4994361;28;20454;-94
2022/03/11 02:09:01;;;;;;;9.67;5.50;;;0.00;99.90;;;;;;4992517;28;20457;-92
2022/03/11 02:11:29;;;;;;;10.30;6.07;;;;;;;;;;4993182;28;20460;-93
2022/03/11 02:13:57;;;;;;;9.90;5.67;;;0.00;99.90;;;;;;4990888;28;20815;-94
2022/03/11 02:16:25;;;;;;;8.87;5.90;;;0.00;99.90;;;;;;4994450;28;20449;-90
2022/03/11 02:18:54;;;;;;;8.60;6.00;;;;;;;;;;4994118;28;20485;-92
2022/03/11 02:21:22;;;;;;;10.10;6.20;;;-0.10;99.90;;;;;;4992704;28;20469;-94
2022/03/11 02:23:52;;;;;;;10.07;6.47;;;-0.20;99.90;;;;;;4993956;28;20446;-93
2022/03/11 02:26:20;;;;;;;12.07;6.10;;;-0.10;99.90;;;;;;4993088;28;20456;-90
2022/03/11 02:28:50;;;;;;;8.70;6.17;;;-0.10;99.90;;;;;;4994270;28;20465;-90
2022/03/11 02:31:18;;;;;;;8.00;5.80;;;;;;;;;;4990202;28;20437;-91
2022/03/11 02:33:45;;;;;;;12.00;7.47;;;;;;;;;;4994222;28;20503;-92
2022/03/11 02:36:12;;;;;;;10.43;6.90;;;;;;;;;;4986633;28;20445;-93
2022/03/11 02:38:39;;;;;;;11.60;7.03;;;;;;;;;;4993040;28;20492;-93
2022/03/11 02:41:08;;;;;;;9.67;6.30;;;-0.30;99.90;;;;;;4988094;28;20925;-89
2022/03/11 02:43:36;;;;;;;9.37;7.30;;;;;;;;;;4994296;28;20456;-90
2022/03/11 02:46:03;;;;;;;10.40;7.00;;;;;;;;;;4994164;28;20456;-94
2022/03/11 02:48:30;;;;;;;10.20;6.70;;;;;;;;;;4990938;28;20455;-87
2022/03/11 02:50:57;;;;;;;10.73;7.40;;;;;;;;;;4994324;28;20446;-93
2022/03/11 02:53:25;;;;;;;9.57;6.10;;;;;;;;;;4994454;28;20437;-88
2022/03/11 02:55:52;;;;;;;10.80;6.90;;;;;;;;;;4992884;28;20454;-90
2022/03/11 02:58:20;;;;;;;12.83;7.60;;;;;;;;;;4994305;28;20449;-86
2022/03/11 03:00:48;;;;;;;11.83;8.20;;;;;;;;;;4994172;28;20587;-87
2022/03/11 03:03:15;;;;;;;12.73;8.33;;;;;;;;;;4957627;28;1078748;-92
2022/03/11 03:05:42;;;;;;;11.57;8.10;;;;;;;;;;4994784;28;20198;-93
2022/03/11 03:08:09;;;;;;;14.17;9.37;;;;;;;;;;4994508;28;20453;-92
2022/03/11 03:10:36;;;;;;;12.40;8.20;;;;;;;;;;4994020;28;20453;-93
2022/03/11 03:13:04;;;;;;;13.20;8.27;;;;;;;;;;4994935;28;20445;-90
2022/03/11 03:15:33;;;;;;;12.30;8.20;;;-0.30;99.90;;;;;;4994261;28;20454;-93
2022/03/11 03:18:00;;;;;;;14.43;9.13;;;;;;;;;;4991690;28;20449;-94
2022/03/11 03:20:27;;;;;;;15.80;10.13;;;;;;;;;;4994357;28;20999;-93
2022/03/11 03:22:54;;;;;;;15.93;10.20;;;;;;;;;;4994583;28;20940;-92
2022/03/11 03:25:21;;;;;;;18.80;11.07;;;;;;;;;;4993641;28;20464;-93
2022/03/11 03:27:49;;;;;;;16.53;11.00;;;;;;;;;;4994383;28;20449;-92
2022/03/11 03:30:16;;;;;;;18.70;9.83;;;;;;;;;;4994186;28;20821;-93
2022/03/11 03:32:44;;;;;;;17.67;9.73;;;-0.40;99.90;;;;;;4994304;28;20485;-91
2022/03/11 03:35:11;;;;;;;17.80;10.70;;;;;;;;;;4994236;28;20914;-92
2022/03/11 03:37:39;;;;;;;20.80;11.23;;;;;;;;;;4997118;28;20433;-92
2022/03/11 03:40:09;;;;;;;19.23;11.27;;;0.10;99.90;;;;;;4998249;28;20497;-94
2022/03/11 03:42:36;;;;;;;18.73;11.43;;;;;;;;;;4997719;28;20449;-92
2022/03/11 03:45:06;;;;;;;21.07;12.07;;;0.30;99.90;;;;;;4995317;28;20444;-87
2022/03/11 03:47:33;;;;;;;18.70;12.10;;;;;;;;;;4998256;28;20512;-93
2022/03/11 03:50:01;;;;;;;19.97;11.77;;;0.20;99.90;;;;;;4997967;28;20787;-87
2022/03/11 03:52:29;;;;;;;17.83;11.90;;;;;;;;;;4993987;28;20445;-89
2022/03/11 03:54:56;;;;;;;17.50;12.13;;;;;;;;;;4994748;28;20448;-91
2022/03/11 03:57:25;;;;;;;23.00;13.23;;;;;;;;;;4996953;28;20441;-93
2022/03/11 03:59:52;;;;;;;19.63;12.00;;;;;;;;;;4997790;28;20870;-91
2022/03/11 04:02:20;;;;;;;23.33;12.60;;;;;;;;;;4995760;28;20536;-92
2022/03/11 04:04:47;;;;;;;22.17;11.90;;;;;;;;;;4997759;28;20445;-92
2022/03/11 04:07:16;;;;;;;21.03;12.67;;;;;;;;;;4997595;28;20449;-90
2022/03/11 04:09:43;;;;;;;21.93;12.90;;;;;;;;;;4995046;28;20442;-92
2022/03/11 04:12:11;;;;;;;20.83;12.17;;;0.40;99.90;;;;;;4994924;28;20464;-88
2022/03/11 04:14:38;;;;;;;22.00;12.53;;;;;;;;;;4994998;28;20449;-88
2022/03/11 04:17:06;;;;;;;20.60;11.73;;;;;;;;;;4997520;28;20808;-89
2022/03/11 04:19:33;;;;;;;23.90;13.33;;;;;;;;;;4994482;28;20485;-90
2022/03/11 04:22:01;;;;;;;21.80;12.27;;;;;;;;;;4997613;28;20536;-92
2022/03/11 04:24:29;;;;;;;18.50;12.77;;;;;;;;;;4997571;28;20453;-87
2022/03/11 04:26:56;;;;;;;20.83;13.60;;;;;;;;;;4996411;28;20437;-92
2022/03/11 04:29:26;;;;;;;26.83;12.60;;;;;;;;;;4994318;28;20461;-93
2022/03/11 04:31:54;;;;;;;21.17;13.53;;;;;;;;;;4997337;28;20531;-92
2022/03/11 04:34:22;;;;;;;21.80;13.50;;;;;;;;;;4997387;28;20496;-89
2022/03/11 04:36:49;;;;;;;36.97;15.10;;;;;;;;;;4994041;28;20441;-88
2022/03/11 04:39:17;;;;;;;20.77;12.77;;;;;;;;;;4994165;28;20537;-91
2022/03/11 04:41:46;;;;;;;20.47;12.90;;;;;;;;;;4996469;28;20459;-92
2022/03/11 04:44:13;;;;;;;23.47;14.20;;;;;;;;;;4997751;28;20438;-91
2022/03/11 04:46:40;;;;;;;21.20;13.13;;;;;;;;;;4997044;28;20453;-92
2022/03/11 04:49:07;;;;;;;22.97;14.03;;;;;;;;;;4997002;28;20449;-91
2022/03/11 04:51:35;;;;;;;26.20;14.33;;;;;;;;;;4997262;28;20453;-92
2022/03/11 04:54:03;;;;;;;23.10;13.63;;;0.30;99.90;;;;;;4997035;28;20456;-93
2022/03/11 04:56:31;;;;;;;21.53;13.97;;;;;;;;;;4992373;28;20454;-94
2022/03/11 04:58:59;;;;;;;22.70;13.23;;;0.20;99.90;;;;;;4993548;28;20536;-94
2022/03/11 05:01:26;;;;;;;19.60;12.80;;;;;;;;;;4993777;28;20845;-87
2022/03/11 05:03:53;;;;;;;21.33;13.83;;;;;;;;;;4993544;28;20534;-93
2022/03/11 05:06:21;;;;;;;19.97;13.07;;;;;;;;;;4996441;28;20944;-91
2022/03/11 05:08:48;;;;;;;25.43;13.30;;;;;;;;;;4993792;28;20457;-92
2022/03/11 05:11:15;;;;;;;25.33;13.90;;;;;;;;;;4995570;28;20800;-93
2022/03/11 05:13:42;;;;;;;20.37;11.63;;;;;;;;;;4996507;28;20464;-93
2022/03/11 05:16:11;;;;;;;23.97;13.13;;;;;;;;;;4996192;28;20818;-93
2022/03/11 05:18:38;;;;;;;19.57;11.53;;;;;;;;;;4992060;28;20460;-91
2022/03/11 05:21:05;;;;;;;19.80;10.27;;;;;;;;;;4996100;28;20496;-93
2022/03/11 05:23:33;;;;;;;20.03;12.23;;;;;;;;;;4992865;28;20492;-93
2022/03/11 05:26:00;;;;;;;26.37;13.03;;;;;;;;;;4991973;28;20456;-91
2022/03/11 05:28:27;;;;;;;23.10;13.67;;;;;;;;;;4995931;28;20457;-90
2022/03/11 05:30:54;;;;;;;19.93;13.00;;;;;;;;;;4995935;28;20468;-89
2022/03/11 05:33:22;;;;;;;17.60;11.73;;;-0.10;99.90;;;;;;4996584;28;20453;-88
2022/03/11 05:35:50;;;;;;;21.50;12.33;;;;;;;;;;4993253;28;20863;-90
2022/03/11 05:38:19;;;;;;;24.57;13.10;;;;;;;;;;4996044;28;20480;-88
2022/03/11 05:40:46;;;;;;;23.50;12.57;;;;;;;;;;4994850;28;20489;-91
2022/03/11 05:43:13;;;;;;;20.10;11.97;;;;;;;;;;4995800;28;20450;-94
2022/03/11 05:45:41;;;;;;;20.47;12.93;;;;;;;;;;4995858;28;20448;-92
2022/03/11 05:48:09;;;;;;;26.77;13.27;;;;;;;;;;4995825;28;20441;-90
2022/03/11 05:50:37;;;;;;;23.60;14.03;;;-0.40;99.90;;;;;;4995901;28;20453;-89
2022/03/11 05:53:04;;;;;;;18.93;12.50;;;;;;;;;;4993031;28;20449;-94
2022/03/11 05:55:31;;;;;;;20.73;13.20;;;;;;;;;;4992316;28;20449;-88
2022/03/11 05:57:59;;;;;;;20.03;11.50;;;;;;;;;;4996580;28;20444;-93
2022/03/11 06:00:26;;;;;;;18.93;12.30;;;;;;;;;;4995827;28;20493;-93
2022/03/11 06:02:53;;;;;;;22.20;14.23;;;;;;;;;;4995948;28;21000;-92
2022/03/11 06:05:20;;;;;;;24.50;13.00;;;;;;;;;;4996114;28;20457;-91
2022/03/11 06:07:49;;;;;;;19.70;13.13;;;;;;;;;;4995713;28;20937;-93
2022/03/11 06:10:17;;;;;;;25.90;14.50;;;;;;;;;;4994832;28;20453;-94
2022/03/11 06:12:44;;;;;;;20.83;13.83;;;;;;;;;;4995585;28;20508;-92
2022/03/11 06:15:12;;;;;;;26.33;13.17;;;-0.10;99.90;;;;;;4995683;28;20549;-94
2022/03/11 06:17:40;;;;;;;22.33;12.67;;;;;;;;;;4995531;28;20491;-93
2022/03/11 06:20:08;;;;;;;19.47;13.43;;;0.40;99.90;;;;;;4995390;28;21004;-92
2022/03/11 06:22:37;;;;;;;20.47;12.73;;;;;;;;;;4993508;28;20532;-86
2022/03/11 06:25:06;;;;;;;22.93;12.70;;;1.10;99.90;;;;;;4997866;28;20534;-92
2022/03/11 06:27:33;;;;;;;24.90;12.87;;;;;;;;;;4994734;28;20814;-92
2022/03/11 06:30:00;;;;;;;17.63;11.60;;;;;;;;;;4995209;28;20457;-94
2022/03/11 06:32:28;;;;;;;22.33;12.17;;;;;;;;;;4992566;28;20449;-94
2022/03/11 06:34:55;;;;;;;23.50;12.33;;;;;;;;;;4992237;28;20868;-95
2022/03/11 06:37:22;;;;;;;18.10;11.80;;;;;;;;;;4992026;28;20465;-93
2022/03/11 06:39:51;;;;;;;18.60;12.10;;;;;;;;;;4995663;28;20449;-96
2022/03/11 06:42:19;;;;;;;22.73;13.07;;;2.50;99.00;;;;;;4996027;28;20457;-93
2022/03/11 06:44:46;;;;;;;19.43;12.10;;;;;;;;;;4996861;28;20453;-92
2022/03/11 06:47:14;;;;;;;18.43;12.07;;;;;;;;;;4996115;28;20464;-94
2022/03/11 06:49:41;;;;;;;19.90;11.53;;;;;;;;;;4992410;28;20434;-91
2022/03/11 06:52:08;;;;;;;17.60;11.80;;;3.30;95.70;;;;;;4994874;28;20441;-88
2022/03/11 06:54:35;;;;;;;18.20;10.50;;;;;;;;;;4994722;28;20450;-87
2022/03/11 06:57:02;;;;;;;15.63;10.47;;;;;;;;;;4992520;28;20512;-92
2022/03/11 06:59:31;;;;;;;17.50;11.53;;;3.60;94.40;;;;;;4995891;28;20467;-87
2022/03/11 07:01:58;;;;;;;15.17;11.00;;;;;;;;;;4991787;28;20496;-90
2022/03/11 07:04:25;;;;;;;17.77;10.83;;;;;;;;;;4994037;28;20492;-88
2022/03/11 07:06:52;;;;;;;22.33;11.80;;;;;;;;;;4994764;28;20525;-87
2022/03/11 07:09:19;;;;;;;16.40;10.67;;;;;;;;;;4991386;28;20937;-87
2022/03/11 07:11:46;;;;;;;17.30;10.40;;;;;;;;;;4993427;28;20511;-89
2022/03/11 07:14:14;;;;;;;18.13;10.30;;;;;;;;;;4998043;28;20449;-88
2022/03/11 07:16:42;;;;;;;25.70;9.10;;;4.00;91.20;;;;;;4998390;28;20445;-92
2022/03/11 07:19:09;;;;;;;21.77;7.90;;;;;;;;;;4995386;28;20441;-92
2022/03/11 07:21:36;;;;;;;14.10;9.90;;;;;;;;;;4997989;28;20497;-85
2022/03/11 07:24:03;;;;;;;17.13;8.90;;;;;;;;;;4998211;28;20529;-90
2022/03/11 07:26:30;;;;;;;15.53;11.67;;;;;;;;;;4997020;28;20449;-86
2022/03/11 07:28:57;;;;;;;19.13;10.57;;;;;;;;;;4997761;28;20779;-87
2022/03/11 07:31:24;;;;;;;16.53;10.00;;;;;;;;;;4997413;28;20457;-86
2022/03/11 07:33:52;;;;;;;15.60;10.67;;;5.50;85.60;;;;;;5002501;28;20473;-85
2022/03/11 07:36:20;;;;;;;15.90;10.47;;;;;;;;;;5010756;28;20469;-84
2022/03/11 07:38:48;;;;;;;19.90;10.30;;;;;;;;;;5012642;28;20436;-87
2022/03/11 07:41:16;;;;;;;11.63;8.90;;;6.10;85.90;;;;;;5016248;28;20503;-90
2022/03/11 07:43:44;;;;;;;15.30;10.17;;;;;;;;;;5017036;28;20452;-84
2022/03/11 07:46:11;;;;;;;13.90;9.83;;;;;;;;;;5017155;28;20934;-87
2022/03/11 07:48:39;;;;;;;22.20;10.07;;;;;;;;;;5017070;28;20480;-86
2022/03/11 07:51:08;;;;;;;11.80;9.03;;;;;;;;;;5017526;28;20940;-87
2022/03/11 07:53:35;;;;;;;15.00;10.40;;;;;;;;;;5016735;28;20452;-88
2022/03/11 07:56:03;;;;;;;15.53;10.90;;;;;;;;;;5015662;28;20448;-88
2022/03/11 07:58:30;;;;;;;14.77;10.53;;;;;;;;;;5017061;28;20881;-88
2022/03/11 08:00:58;;;;;;;15.67;9.87;;;;;;;;;;5016924;28;20488;-86
2022/03/11 08:03:25;;;;;;;20.13;10.40;;;;;;;;;;5016779;28;20480;-85
2022/03/11 08:05:52;;;;;;;13.13;11.03;;;;;;;;;;5013966;28;20458;-89
2022/03/11 08:08:20;;;;;;;14.10;9.13;;;;;;;;;;5016918;28;20452;-89
2022/03/11 08:10:48;;;;;;;15.23;10.30;;;;;;;;;;5015903;28;20448;-86
2022/03/11 08:13:15;;;;;;;18.43;10.03;;;;;;;;;;5013856;28;20523;-87
2022/03/11 08:15:42;;;;;;;12.40;9.67;;;;;;;;;;5016410;28;20456;-86
2022/03/11 08:18:09;;;;;;;19.37;10.10;;;;;;;;;;5016462;28;20448;-87
2022/03/11 08:20:37;;;;;;;21.77;10.30;;;;;;;;;;5016320;28;20492;-86
2022/03/11 08:23:04;;;;;;;16.07;11.50;;;;;;;;;;5015948;28;20454;-87
2022/03/11 08:25:32;;;;;;;20.80;11.97;;;;;;;;;;5015206;28;20464;-86
2022/03/11 08:27:59;;;;;;;18.50;13.73;;;;;;;;;;5016408;28;20449;-85
2022/03/11 08:30:26;;;;;;;17.73;12.73;;;;;;;;;;5016878;28;20475;-87
2022/03/11 08:32:55;;;;;;;17.90;12.33;;;8.60;75.20;;;;;;5016741;28;20447;-88
2022/03/11 08:35:22;;;;;;;14.93;11.80;;;;;;;;;;5016391;28;20457;-86
2022/03/11 08:37:49;;;;;;;19.23;12.70;;;;;;;;;;5015867;28;20541;-86
2022/03/11 08:40:17;;;;;;;19.33;13.13;;;;;;;;;;5014820;28;20452;-86
2022/03/11 08:42:45;;;;;;;18.27;13.97;;;9.60;74.10;;;;;;5013727;28;20452;-90
2022/03/11 08:45:12;;;;;;;17.87;13.10;;;9.90;72.60;;;;;;5016029;28;20494;-84
2022/03/11 08:47:39;;;;;;;17.37;13.23;;;;;;;;;;5016032;28;20459;-84
2022/03/11 08:50:07;;;;;;;14.40;12.10;;;10.30;70.00;;;;;;5015677;28;20493;-90
2022/03/11 08:52:34;;;;;;;16.50;12.07;;;;;;;;;;5012825;28;20475;-84
2022/03/11 08:55:01;;;;;;;18.93;13.27;;;;;;;;;;5015999;28;20448;-85
2022/03/11 08:57:28;;;;;;;18.70;12.90;;;;;;;;;;5014755;28;20455;-89
2022/03/11 08:59:56;;;;;;;19.70;12.53;;;10.10;68.90;;;;;;5016174;28;20459;-89
2022/03/11 09:02:24;;;;;;;24.27;12.10;;;10.20;69.00;;;;;;5015312;28;20833;-90
2022/03/11 09:04:51;;;;;;;16.87;13.00;;;;;;;;;;5012637;28;20451;-86
2022/03/11 09:07:18;;;;;;;20.10;13.27;;;;;;;;;;5012832;28;20449;-86
2022/03/11 09:09:45;;;;;;;15.20;11.50;;;;;;;;;;5012883;28;20452;-86
2022/03/11 09:12:12;;;;;;;18.53;11.93;;;;;;;;;;4991971;28;20457;-87
2022/03/11 09:14:39;;;;;;;18.20;12.10;;;;;;;;;;4995763;28;20956;-88
2022/03/11 09:17:08;;;;;;;16.27;13.07;;;11.20;67.10;;;;;;5007906;28;20450;-88
2022/03/11 09:19:35;;;;;;;17.53;13.27;;;;;;;;;;5014856;28;20967;-85
2022/03/11 09:22:02;;;;;;;18.27;11.63;;;;;;;;;;5014785;28;21007;-84
2022/03/11 09:24:29;;;;;;;15.80;11.87;;;;;;;;;;5014815;28;20449;-88
2022/03/11 09:26:58;;;;;;;18.30;13.53;;;;;;;;;;5013760;28;20460;-89
2022/03/11 09:29:28;;;;;;;17.93;12.50;;;;;;;;;;5014959;28;20875;-89
2022/03/11 09:31:56;;;;;;;17.10;11.37;;;;;;;;;;5015362;28;20551;-89
2022/03/11 09:34:24;;;;;;;15.40;12.37;;;11.50;64.40;;;;;;5000890;28;20589;-91
2022/03/11 09:36:53;;;;;;;15.80;11.37;;;;;;;;;;4994070;28;20512;-90
2022/03/11 09:39:20;;;;;;;14.80;11.40;;;;;;;;;;5012264;28;20449;-88
2022/03/11 09:41:47;;;;;;;14.50;11.27;;;11.30;61.90;;;;;;4993649;28;20497;-88
2022/03/11 09:44:15;;;;;;;15.70;11.70;;;11.50;62.50;;;;;;4994799;28;20446;-88
2022/03/11 09:46:43;;;;;;;15.00;10.90;;;;;;;;;;4995522;28;20504;-87
2022/03/11 09:49:12;;;;;;;13.40;11.20;;;10.50;63.20;;;;;;4995195;28;20447;-91
2022/03/11 09:51:41;;;;;;;15.90;9.70;;;11.60;61.60;;;;;;4995293;28;20456;-88
2022/03/11 09:54:08;;;;;;;15.40;11.13;;;;;;;;;;4995288;28;20457;-89
2022/03/11 09:56:36;;;;;;;16.53;10.40;;;;;;;;;;4996156;28;20446;-88
2022/03/11 09:59:03;;;;;;;13.80;9.87;;;;;;;;;;5003312;28;20790;-87
2022/03/11 10:01:30;;;;;;;12.43;10.80;;;;;;;;;;5014636;28;20793;-88
2022/03/11 10:03:57;;;;;;;16.27;10.30;;;;;;;;;;4999500;28;20481;-88
2022/03/11 10:06:45;;;;;;;11.03;9.60;;;12.70;58.00;;;;;;4994413;28;20449;-88
2022/03/11 10:09:32;;;;;;;19.20;10.60;;;13.10;85.70;;;;;;4994179;28;20492;-86
2022/03/11 10:12:05;;;;;;;13.90;10.33;;;;;;;;;;4993094;28;20481;-86
2022/03/11 10:14:36;;;;;;;16.10;10.37;;;;;;;;;;4979862;28;20492;-92
2022/03/11 10:17:05;;;;;;;12.50;9.80;;;;;;;;;;5014139;28;20461;-90
2022/03/11 10:19:33;;;;;;;10.70;9.23;;;;;;;;;;5014339;28;20450;-90
2022/03/11 10:22:04;;;;;;;13.17;9.13;;;;;;;;;;5014173;28;20591;-92
2022/03/11 10:24:49;;;;;;;11.30;9.50;;;;;;;;;;5016826;28;20464;-95
2022/03/11 10:27:16;;;;;;;12.57;8.67;;;;;;;;;;5016990;28;20940;-95
2022/03/11 10:29:46;;;;;;;14.80;9.50;;;;;;;;;;5014926;28;20571;-92
2022/03/11 10:32:13;;;;;;;12.50;9.27;;;;;;;;;;5014911;28;20457;-91
2022/03/11 10:34:41;;;;;;;15.40;8.87;;;;;;;;;;5013214;28;20471;-93
2022/03/11 10:37:16;;;;;;;11.00;9.57;;;;;;;;;;5015115;28;20940;-92
2022/03/11 10:39:45;;;;;;;10.13;9.10;;;;;;;;;;5014828;28;20456;-91
2022/03/11 10:42:17;;;;;;;11.23;9.23;;;15.40;50.30;;;;;;5014078;28;20526;-94
2022/03/11 10:45:05;;;;;;;13.73;9.83;;;15.30;85.80;;;;;;5009511;28;20533;-94
2022/03/11 10:47:34;;;;;;;10.40;9.00;;;15.30;50.40;;;;;;5015325;28;20459;-94
2022/03/11 10:50:07;;;;;;;14.37;9.07;;;14.10;50.30;;;;;;5011414;28;20452;-94
2022/03/11 10:52:37;;;;;;;15.13;9.77;;;14.60;50.90;;;;;;4995510;28;20449;-93
2022/03/11 10:55:19;;;;;;;12.40;9.73;;;14.50;50.70;;;;;;4995090;28;20442;-93
2022/03/11 10:57:47;;;;;;;13.27;9.53;;;;;;;;;;4990639;28;20453;-91
2022/03/11 11:00:23;;;;;;;10.40;9.00;;;;;;;;;;4995201;28;20549;-94
2022/03/11 11:02:52;;;;;;;11.63;9.40;;;;;;;;;;4993452;28;20558;-93
2022/03/11 11:05:55;;;;;;;13.37;9.90;;;;;;;;;;4996340;28;20461;-93
2022/03/11 11:08:32;;;;;;;10.33;9.10;;;;;;;;;;4995120;28;20457;-94
2022/03/11 11:11:01;;;;;;;13.00;9.40;;;;;;;;;;4994234;28;20552;-95
2022/03/11 11:13:31;;;;;;;13.90;9.73;;;;;;;;;;4994472;28;20445;-94
2022/03/11 11:16:02;;;;;;;13.47;9.80;;;;;;;;;;4995159;28;20457;-95
2022/03/11 11:18:33;;;;;;;12.13;9.77;;;;;;;;;;4995254;28;20488;-94
2022/03/11 11:21:01;;;;;;;11.30;9.27;;;;;;;;;;4995283;28;20517;-95
2022/03/11 11:26:22;;;;;;;12.50;9.60;;;;;;;;;;4987004;28;20597;-94
2022/03/11 11:29:04;;;;;;;12.20;9.80;;;16.40;47.90;;;;;;4994531;28;20445;-94
2022/03/11 11:31:32;;;;;;;14.83;9.83;;;;;;;;;;4994357;28;20487;-94
2022/03/11 11:34:00;;;;;;;11.90;9.40;;;;;;;;;;4994955;28;20460;-94
2022/03/11 11:36:35;;;;;;;13.47;9.80;;;;;;;;;;4994683;28;20504;-92
2022/03/11 11:39:08;;;;;;;14.53;10.33;;;16.70;47.10;;;;;;4994881;28;20441;-92
2022/03/11 11:41:36;;;;;;;13.90;10.30;;;;;;;;;;4993626;28;20480;-94
2022/03/11 11:44:06;;;;;;;17.03;10.07;;;16.40;48.20;;;;;;4994347;28;20545;-93
2022/03/11 11:46:37;;;;;;;12.07;9.10;;;16.80;46.90;;;;;;4994183;28;20481;-95
2022/03/11 11:49:25;;;;;;;11.30;10.10;;;;;;;;;;4994716;28;20484;-94
2022/03/11 11:52:08;;;;;;;12.40;10.60;;;15.70;48.00;;;;;;4994850;28;20481;-94
2022/03/11 11:54:38;;;;;;;11.17;9.87;;;16.10;48.20;;;;;;4993349;28;20457;-94
2022/03/11 11:57:06;;;;;;;12.03;10.50;;;;;;;;;;4995171;28;20462;-92
2022/03/11 11:59:36;;;;;;;11.90;9.67;;;15.50;48.10;;;;;;4999630;28;20544;-92
2022/03/11 12:02:24;;;;;;;11.90;9.07;;;14.80;48.40;;;;;;4999123;28;20485;-93
2022/03/11 12:04:51;;;;;;;14.20;10.30;;;;;;;;;;4997973;28;20993;-93
2022/03/11 12:07:20;;;;;;;13.10;9.33;;;;;;;;;;4998513;28;20453;-93
2022/03/11 12:09:54;;;;;;;15.73;9.57;;;16.10;48.80;;;;;;4999278;28;20445;-94
2022/03/11 12:13:01;;;;;;;12.63;9.00;;;16.60;47.50;;;;;;5001089;28;20462;-93
2022/03/11 12:15:32;;;;;;;12.80;9.80;;;16.20;47.20;;;;;;5001747;28;20461;-93
2022/03/11 12:18:00;;;;;;;15.40;10.57;;;;;;;;;;5001820;28;21011;-88
2022/03/11 12:20:33;;;;;;;12.40;9.83;;;16.10;78.40;;;;;;4997604;28;20826;-86
2022/03/11 12:23:02;;;;;;;13.43;9.87;;;16.50;47.30;;;;;;4997347;28;20488;-88
2022/03/11 12:25:33;;;;;;;14.23;9.60;;;17.00;46.80;;;;;;4995714;28;20554;-89
2022/03/11 12:28:06;;;;;;;11.73;9.83;;;16.90;69.50;;;;;;4996796;28;20441;-89
2022/03/11 12:30:35;;;;;;;13.23;9.40;;;17.10;46.80;;;;;;4996433;28;20453;-87
2022/03/11 12:33:03;;;;;;;12.53;10.10;;;16.80;47.10;;;;;;4996483;28;20449;-87
2022/03/11 12:35:30;;;;;;;10.57;9.43;;;;;;;;;;4996362;28;20456;-89
2022/03/11 12:37:57;;;;;;;13.33;9.80;;;;;;;;;;4996213;28;20820;-87
2022/03/11 12:40:26;;;;;;;13.53;10.00;;;16.90;46.90;;;;;;4994895;28;20453;-89
2022/03/11 12:43:03;;;;;;;14.50;11.57;;;17.60;80.00;;;;;;4996238;28;20493;-87
2022/03/11 12:45:39;;;;;;;14.60;11.37;;;17.60;80.20;;;;;;4996695;28;20808;-89
2022/03/11 12:48:07;;;;;;;15.07;10.60;;;17.50;45.70;;;;;;4996624;28;20453;-90
2022/03/11 12:50:35;;;;;;;13.93;10.40;;;16.00;78.30;;;;;;4996172;28;20476;-89
2022/03/11 12:53:02;;;;;;;15.70;11.10;;;;;;;;;;4995934;28;20469;-86
2022/03/11 12:55:31;;;;;;;15.67;10.40;;;15.90;48.00;;;;;;4993619;28;20449;-86
2022/03/11 12:58:01;;;;;;;13.77;10.13;;;16.10;48.20;;;;;;4996016;28;20484;-88
2022/03/11 13:00:30;;;;;;;14.40;10.77;;;16.90;47.60;;;;;;4996121;28;20457;-90
2022/03/11 13:02:58;;;;;;;12.53;9.87;;;17.60;48.00;;;;;;4989265;28;20508;-89
2022/03/11 13:05:26;;;;;;;12.23;10.37;;;17.90;46.10;;;;;;4995595;28;20512;-88
2022/03/11 13:07:54;;;;;;;13.63;10.27;;;17.90;78.20;;;;;;4996218;28;20456;-90
2022/03/11 13:10:24;;;;;;;13.63;10.63;;;17.10;45.30;;;;;;4994197;28;20945;-94
2022/03/11 13:12:53;;;;;;;16.43;9.97;;;;;;;;;;4996032;28;20469;-93
2022/03/11 13:15:23;;;;;;;18.03;10.77;;;17.00;45.90;;;;;;4996003;28;20456;-89
2022/03/11 13:17:52;;;;;;;11.77;10.07;;;16.70;46.40;;;;;;4995751;28;20449;-89
2022/03/11 13:20:30;;;;;;;15.87;10.73;;;17.40;79.30;;;;;;4995416;28;20441;-90
2022/03/11 13:22:58;;;;;;;13.80;10.93;;;;;;;;;;4995605;28;20505;-91
2022/03/11 13:25:25;;;;;;;14.60;10.43;;;;;;;;;;4994526;28;20461;-90
2022/03/11 13:27:55;;;;;;;13.83;9.97;;;17.80;45.90;;;;;;4992377;28;20511;-90
2022/03/11 13:30:35;;;;;;;12.50;10.77;;;17.90;76.20;;;;;;4995579;28;20853;-91
2022/03/11 13:33:13;;;;;;;23.67;10.20;;;17.50;74.00;;;;;;4995883;28;20535;-91
2022/03/11 13:35:41;;;;;;;11.40;10.07;;;;;;;;;;4997131;28;20827;-88
2022/03/11 13:38:08;;;;;;;11.93;9.80;;;;;;;;;;4994089;28;20453;-89
2022/03/11 13:40:36;;;;;;;13.40;11.10;;;;;;;;;;4996457;28;20452;-92
2022/03/11 13:43:04;;;;;;;12.70;11.10;;;18.60;45.80;;;;;;4994057;28;20520;-93
2022/03/11 13:45:36;;;;;;;16.57;9.77;;;18.10;46.60;;;;;;4996325;28;20937;-95
2022/03/11 13:48:05;;;;;;;14.57;9.40;;;18.60;45.10;;;;;;4994669;28;20469;-92
2022/03/11 13:50:40;;;;;;;19.30;11.30;;;;;;;;;;4997380;28;20441;-94
2022/03/11 13:53:07;;;;;;;14.10;11.37;;;;;;;;;;4996887;28;20925;-94
2022/03/11 13:55:35;;;;;;;19.37;10.87;;;18.80;46.50;;;;;;4995816;28;20438;-96
2022/03/11 13:58:15;;;;;;;14.47;10.87;;;;;;;;;;4996531;28;20959;-94
2022/03/11 14:00:44;;;;;;;14.63;10.90;;;;;;;;;;4993451;28;20507;-94
2022/03/11 14:03:16;;;;;;;13.47;11.23;;;17.70;45.40;;;;;;4996269;28;20501;-94